SWA1246 KMCI-KMDW
Flight info
| Callsign | SWA1246 |
|---|---|
| Flight time | 0h 55m |
| Altitude | 37000 |
| Route | ROYAL2 ARENZ IRK ENDEE8 |
| Aircraft | B737/M-SDE2E3FGHIRWXY/LB1 |
Departure
| Time | 2026-05-08 00:19 |
|---|---|
| Airport | Kansas City International Airport (KMCI) |
Arrival
| Time | 2026-05-08 01:14 |
|---|---|
| Airport | Chicago Midway International Airport (KMDW) |
| Time | Latitude | Longitude | Altitude | Speed | Heading |
|---|---|---|---|---|---|
| 2026-05-08 00:02 | 39.29822 | -94.72344 | 1013 ft | 0 kts | 103° |
| 2026-05-08 00:11 | 39.29822 | -94.72348 | 1013 ft | 3 kts | 103° |
| 2026-05-08 00:11 | 39.29826 | -94.72381 | 1013 ft | 4 kts | 83° |
| 2026-05-08 00:11 | 39.29818 | -94.72412 | 1013 ft | 4 kts | 46° |
| 2026-05-08 00:12 | 39.29803 | -94.72425 | 1013 ft | 0 kts | 13° |
| 2026-05-08 00:14 | 39.29805 | -94.72424 | 1013 ft | 2 kts | 13° |
| 2026-05-08 00:14 | 39.29836 | -94.72426 | 1013 ft | 6 kts | 334° |
| 2026-05-08 00:14 | 39.29860 | -94.72482 | 1013 ft | 8 kts | 299° |
| 2026-05-08 00:15 | 39.29925 | -94.72484 | 1014 ft | 15 kts | 13° |
| 2026-05-08 00:15 | 39.30059 | -94.72444 | 1013 ft | 25 kts | 13° |
| 2026-05-08 00:15 | 39.30231 | -94.72393 | 1013 ft | 27 kts | 13° |
| 2026-05-08 00:15 | 39.30430 | -94.72335 | 1013 ft | 30 kts | 13° |
| 2026-05-08 00:16 | 39.30636 | -94.72275 | 1013 ft | 29 kts | 13° |
| 2026-05-08 00:16 | 39.30764 | -94.72237 | 1013 ft | 28 kts | 13° |
| 2026-05-08 00:16 | 39.31005 | -94.72165 | 1013 ft | 26 kts | 13° |
| 2026-05-08 00:16 | 39.31177 | -94.72114 | 1013 ft | 28 kts | 13° |
| 2026-05-08 00:17 | 39.31382 | -94.72053 | 1013 ft | 31 kts | 13° |
| 2026-05-08 00:17 | 39.31585 | -94.71993 | 1013 ft | 29 kts | 13° |
| 2026-05-08 00:17 | 39.31715 | -94.71954 | 1013 ft | 28 kts | 13° |
| 2026-05-08 00:17 | 39.31898 | -94.71900 | 1014 ft | 26 kts | 13° |
| 2026-05-08 00:18 | 39.32068 | -94.71849 | 1013 ft | 23 kts | 13° |
| 2026-05-08 00:18 | 39.32172 | -94.71864 | 1014 ft | 14 kts | 302° |
| 2026-05-08 00:18 | 39.32196 | -94.71983 | 1014 ft | 13 kts | 282° |
| 2026-05-08 00:18 | 39.32174 | -94.72089 | 1015 ft | 15 kts | 213° |
| 2026-05-08 00:19 | 39.31949 | -94.72163 | 1014 ft | 66 kts | 193° |
| 2026-05-08 00:19 | 39.31286 | -94.72359 | 1014 ft | 127 kts | 193° |
| 2026-05-08 00:19 | 39.30273 | -94.72667 | 1154 ft | 163 kts | 194° |
| 2026-05-08 00:19 | 39.29148 | -94.73013 | 1819 ft | 171 kts | 195° |
| 2026-05-08 00:20 | 39.27976 | -94.73301 | 2538 ft | 173 kts | 192° |
| 2026-05-08 00:20 | 39.26731 | -94.73409 | 3004 ft | 197 kts | 173° |
| 2026-05-08 00:20 | 39.25437 | -94.72528 | 3210 ft | 230 kts | 139° |
| 2026-05-08 00:20 | 39.24580 | -94.70629 | 3404 ft | 266 kts | 108° |
| 2026-05-08 00:21 | 39.24544 | -94.68171 | 3955 ft | 285 kts | 77° |
| 2026-05-08 00:21 | 39.25406 | -94.65850 | 4673 ft | 292 kts | 49° |
| 2026-05-08 00:21 | 39.26787 | -94.63943 | 5606 ft | 290 kts | 42° |
| 2026-05-08 00:21 | 39.28225 | -94.62112 | 6520 ft | 290 kts | 38° |
| 2026-05-08 00:22 | 39.29775 | -94.60455 | 7598 ft | 288 kts | 32° |
| 2026-05-08 00:22 | 39.31368 | -94.58899 | 8726 ft | 287 kts | 31° |
| 2026-05-08 00:22 | 39.32964 | -94.57359 | 9852 ft | 286 kts | 30° |
| 2026-05-08 00:22 | 39.34568 | -94.55806 | 10745 ft | 291 kts | 30° |
| 2026-05-08 00:23 | 39.36213 | -94.54202 | 11412 ft | 306 kts | 30° |
| 2026-05-08 00:23 | 39.37991 | -94.52466 | 11662 ft | 333 kts | 31° |
| 2026-05-08 00:23 | 39.39859 | -94.50617 | 12364 ft | 343 kts | 31° |
| 2026-05-08 00:23 | 39.41756 | -94.48716 | 13308 ft | 346 kts | 31° |
| 2026-05-08 00:24 | 39.43664 | -94.46795 | 14205 ft | 349 kts | 30° |
| 2026-05-08 00:24 | 39.45597 | -94.44847 | 14969 ft | 355 kts | 30° |
| 2026-05-08 00:24 | 39.47568 | -94.42861 | 15689 ft | 363 kts | 30° |
| 2026-05-08 00:24 | 39.49576 | -94.40837 | 16429 ft | 369 kts | 30° |
| 2026-05-08 00:25 | 39.51614 | -94.38780 | 17212 ft | 374 kts | 30° |
| 2026-05-08 00:25 | 39.53680 | -94.36693 | 17964 ft | 379 kts | 30° |
| 2026-05-08 00:25 | 39.55780 | -94.34569 | 18633 ft | 385 kts | 30° |
| 2026-05-08 00:25 | 39.57902 | -94.32423 | 19300 ft | 390 kts | 30° |
| 2026-05-08 00:26 | 39.60048 | -94.30248 | 19996 ft | 394 kts | 30° |
| 2026-05-08 00:26 | 39.62222 | -94.28044 | 20676 ft | 398 kts | 30° |
| 2026-05-08 00:26 | 39.64410 | -94.25824 | 21336 ft | 402 kts | 30° |
| 2026-05-08 00:26 | 39.66627 | -94.23573 | 21987 ft | 407 kts | 30° |
| 2026-05-08 00:27 | 39.68868 | -94.21295 | 22626 ft | 411 kts | 30° |
| 2026-05-08 00:27 | 39.71135 | -94.18990 | 23283 ft | 416 kts | 30° |
| 2026-05-08 00:27 | 39.73425 | -94.16659 | 23842 ft | 421 kts | 30° |
| 2026-05-08 00:27 | 39.75743 | -94.14300 | 24317 ft | 426 kts | 30° |
| 2026-05-08 00:28 | 39.78021 | -94.11764 | 24786 ft | 436 kts | 35° |
| 2026-05-08 00:28 | 39.80227 | -94.09004 | 25276 ft | 442 kts | 37° |
| 2026-05-08 00:28 | 39.82411 | -94.06163 | 25737 ft | 448 kts | 37° |
| 2026-05-08 00:28 | 39.84618 | -94.03277 | 26196 ft | 452 kts | 37° |
| 2026-05-08 00:29 | 39.86825 | -94.00410 | 26628 ft | 457 kts | 37° |
| 2026-05-08 00:29 | 39.89094 | -93.97488 | 27068 ft | 461 kts | 36° |
| 2026-05-08 00:29 | 39.91390 | -93.94549 | 27505 ft | 465 kts | 36° |
| 2026-05-08 00:29 | 39.93711 | -93.91585 | 27933 ft | 469 kts | 36° |
| 2026-05-08 00:30 | 39.96053 | -93.88593 | 28353 ft | 474 kts | 36° |
| 2026-05-08 00:30 | 39.98413 | -93.85575 | 28859 ft | 476 kts | 37° |
| 2026-05-08 00:30 | 40.00777 | -93.82545 | 29373 ft | 478 kts | 37° |
| 2026-05-08 00:30 | 40.03157 | -93.79493 | 29762 ft | 482 kts | 36° |
| 2026-05-08 00:31 | 40.05562 | -93.76407 | 30067 ft | 488 kts | 37° |
| 2026-05-08 00:31 | 40.07990 | -93.73287 | 30356 ft | 491 kts | 37° |
| 2026-05-08 00:31 | 40.10429 | -93.70140 | 30687 ft | 495 kts | 38° |
| 2026-05-08 00:31 | 40.12579 | -93.66547 | 30948 ft | 514 kts | 54° |
| 2026-05-08 00:32 | 40.14022 | -93.62201 | 31238 ft | 528 kts | 70° |
| 2026-05-08 00:32 | 40.14592 | -93.57444 | 31554 ft | 536 kts | 88° |
| 2026-05-08 00:32 | 40.14568 | -93.52579 | 32007 ft | 535 kts | 90° |
| 2026-05-08 00:32 | 40.14466 | -93.47708 | 32400 ft | 535 kts | 91° |
| 2026-05-08 00:33 | 40.14355 | -93.42838 | 32730 ft | 537 kts | 91° |
| 2026-05-08 00:33 | 40.14264 | -93.37957 | 33087 ft | 537 kts | 90° |
| 2026-05-08 00:33 | 40.14200 | -93.33076 | 33484 ft | 537 kts | 90° |
| 2026-05-08 00:33 | 40.14155 | -93.28199 | 33869 ft | 537 kts | 90° |
| 2026-05-08 00:34 | 40.14122 | -93.23321 | 34166 ft | 537 kts | 90° |
| 2026-05-08 00:34 | 40.14092 | -93.18443 | 34478 ft | 537 kts | 90° |
| 2026-05-08 00:34 | 40.14061 | -93.13568 | 34776 ft | 536 kts | 90° |
| 2026-05-08 00:34 | 40.14025 | -93.08695 | 35074 ft | 536 kts | 90° |
| 2026-05-08 00:35 | 40.13984 | -93.03827 | 35422 ft | 535 kts | 90° |
| 2026-05-08 00:35 | 40.13940 | -92.98969 | 35743 ft | 534 kts | 90° |
| 2026-05-08 00:35 | 40.13894 | -92.94120 | 36051 ft | 533 kts | 90° |
| 2026-05-08 00:35 | 40.13845 | -92.89283 | 36395 ft | 531 kts | 90° |
| 2026-05-08 00:36 | 40.13795 | -92.84463 | 36731 ft | 530 kts | 90° |
| 2026-05-08 00:36 | 40.13743 | -92.79641 | 36967 ft | 531 kts | 90° |
| 2026-05-08 00:36 | 40.13634 | -92.69994 | 36939 ft | 535 kts | 90° |
| 2026-05-08 00:37 | 40.13533 | -92.60288 | 36924 ft | 532 kts | 87° |
| 2026-05-08 00:37 | 40.14012 | -92.55531 | 36921 ft | 526 kts | 72° |
| 2026-05-08 00:38 | 40.15928 | -92.46284 | 36932 ft | 524 kts | 70° |
| 2026-05-08 00:38 | 40.17868 | -92.37171 | 36935 ft | 524 kts | 71° |
| 2026-05-08 00:39 | 40.19739 | -92.27957 | 36968 ft | 524 kts | 72° |
| 2026-05-08 00:39 | 40.21562 | -92.18708 | 36943 ft | 525 kts | 72° |
| 2026-05-08 00:40 | 40.23374 | -92.09440 | 36941 ft | 526 kts | 72° |
| 2026-05-08 00:40 | 40.25187 | -92.00159 | 36940 ft | 526 kts | 72° |
| 2026-05-08 00:41 | 40.26993 | -91.90885 | 36952 ft | 526 kts | 72° |
| 2026-05-08 00:41 | 40.28791 | -91.81605 | 36933 ft | 526 kts | 72° |
| 2026-05-08 00:42 | 40.30583 | -91.72317 | 36925 ft | 525 kts | 72° |
| 2026-05-08 00:42 | 40.32360 | -91.63060 | 36917 ft | 524 kts | 72° |
| 2026-05-08 00:43 | 40.34128 | -91.53809 | 36907 ft | 523 kts | 72° |
| 2026-05-08 00:43 | 40.35889 | -91.44560 | 36874 ft | 524 kts | 72° |
| 2026-05-08 00:43 | 40.36958 | -91.39975 | 36209 ft | 527 kts | 65° |
| 2026-05-08 00:44 | 40.38316 | -91.35543 | 35655 ft | 522 kts | 62° |
| 2026-05-08 00:44 | 40.39778 | -91.31189 | 34958 ft | 521 kts | 61° |
| 2026-05-08 00:44 | 40.41250 | -91.26841 | 34264 ft | 521 kts | 62° |
| 2026-05-08 00:44 | 40.42688 | -91.22469 | 33465 ft | 522 kts | 63° |
| 2026-05-08 00:45 | 40.44083 | -91.18073 | 32668 ft | 521 kts | 63° |
| 2026-05-08 00:45 | 40.45449 | -91.13672 | 31910 ft | 520 kts | 63° |
| 2026-05-08 00:45 | 40.46801 | -91.09290 | 31345 ft | 514 kts | 63° |
| 2026-05-08 00:45 | 40.48138 | -91.04962 | 30848 ft | 509 kts | 63° |
| 2026-05-08 00:46 | 40.49452 | -91.00687 | 30455 ft | 500 kts | 63° |
| 2026-05-08 00:46 | 40.50742 | -90.96469 | 30068 ft | 497 kts | 63° |
| 2026-05-08 00:46 | 40.52041 | -90.92227 | 29669 ft | 507 kts | 63° |
| 2026-05-08 00:46 | 40.53365 | -90.87899 | 29242 ft | 513 kts | 63° |
| 2026-05-08 00:47 | 40.54694 | -90.83543 | 28819 ft | 513 kts | 63° |
| 2026-05-08 00:47 | 40.56015 | -90.79192 | 28433 ft | 510 kts | 63° |
| 2026-05-08 00:47 | 40.57324 | -90.74872 | 28031 ft | 509 kts | 63° |
| 2026-05-08 00:47 | 40.58619 | -90.70598 | 27639 ft | 508 kts | 63° |
| 2026-05-08 00:48 | 40.59944 | -90.66220 | 27236 ft | 508 kts | 63° |
| 2026-05-08 00:48 | 40.61233 | -90.61954 | 26854 ft | 509 kts | 63° |
| 2026-05-08 00:48 | 40.62555 | -90.57576 | 26460 ft | 509 kts | 63° |
| 2026-05-08 00:48 | 40.63848 | -90.53286 | 26073 ft | 510 kts | 63° |
| 2026-05-08 00:49 | 40.65155 | -90.48939 | 25683 ft | 511 kts | 63° |
| 2026-05-08 00:49 | 40.66462 | -90.44586 | 25283 ft | 511 kts | 63° |
| 2026-05-08 00:49 | 40.67766 | -90.40234 | 24896 ft | 510 kts | 63° |
| 2026-05-08 00:49 | 40.69061 | -90.35904 | 24522 ft | 504 kts | 63° |
| 2026-05-08 00:50 | 40.70332 | -90.31644 | 24120 ft | 497 kts | 63° |
| 2026-05-08 00:50 | 40.71592 | -90.27414 | 23748 ft | 494 kts | 63° |
| 2026-05-08 00:50 | 40.72844 | -90.23205 | 23310 ft | 492 kts | 63° |
| 2026-05-08 00:50 | 40.74087 | -90.19018 | 22884 ft | 489 kts | 63° |
| 2026-05-08 00:51 | 40.75319 | -90.14859 | 22498 ft | 485 kts | 63° |
| 2026-05-08 00:51 | 40.76538 | -90.10737 | 22112 ft | 482 kts | 63° |
| 2026-05-08 00:51 | 40.77753 | -90.06624 | 21731 ft | 478 kts | 63° |
| 2026-05-08 00:51 | 40.78953 | -90.02554 | 21368 ft | 476 kts | 63° |
| 2026-05-08 00:52 | 40.80148 | -89.98499 | 21021 ft | 473 kts | 62° |
| 2026-05-08 00:52 | 40.81335 | -89.94465 | 20651 ft | 470 kts | 62° |
| 2026-05-08 00:52 | 40.82515 | -89.90448 | 20291 ft | 468 kts | 62° |
| 2026-05-08 00:52 | 40.83687 | -89.86449 | 19931 ft | 466 kts | 62° |
| 2026-05-08 00:53 | 40.84853 | -89.82471 | 19576 ft | 463 kts | 62° |
| 2026-05-08 00:53 | 40.86009 | -89.78514 | 19218 ft | 460 kts | 62° |
| 2026-05-08 00:53 | 40.87192 | -89.74594 | 18853 ft | 454 kts | 58° |
| 2026-05-08 00:53 | 40.88635 | -89.70947 | 18530 ft | 445 kts | 52° |
| 2026-05-08 00:54 | 40.90225 | -89.67467 | 18181 ft | 440 kts | 51° |
| 2026-05-08 00:54 | 40.91840 | -89.64040 | 17804 ft | 438 kts | 51° |
| 2026-05-08 00:54 | 40.93428 | -89.60614 | 17399 ft | 436 kts | 52° |
| 2026-05-08 00:54 | 40.94980 | -89.57176 | 17023 ft | 434 kts | 53° |
| 2026-05-08 00:55 | 40.96502 | -89.53735 | 16664 ft | 432 kts | 53° |
| 2026-05-08 00:55 | 40.97988 | -89.50347 | 16305 ft | 430 kts | 54° |
| 2026-05-08 00:55 | 40.99506 | -89.46881 | 15939 ft | 429 kts | 54° |
| 2026-05-08 00:55 | 41.01000 | -89.43471 | 15537 ft | 428 kts | 54° |
| 2026-05-08 00:56 | 41.02490 | -89.40068 | 15143 ft | 426 kts | 54° |
| 2026-05-08 00:56 | 41.03974 | -89.36676 | 14748 ft | 425 kts | 55° |
| 2026-05-08 00:56 | 41.05447 | -89.33304 | 14356 ft | 423 kts | 55° |
| 2026-05-08 00:56 | 41.06916 | -89.29938 | 13959 ft | 421 kts | 56° |
| 2026-05-08 00:57 | 41.08356 | -89.26634 | 13548 ft | 418 kts | 56° |
| 2026-05-08 00:57 | 41.09805 | -89.23306 | 13129 ft | 415 kts | 56° |
| 2026-05-08 00:57 | 41.11243 | -89.19999 | 12717 ft | 413 kts | 56° |
| 2026-05-08 00:57 | 41.12672 | -89.16712 | 12321 ft | 410 kts | 56° |
| 2026-05-08 00:58 | 41.14090 | -89.13445 | 11937 ft | 405 kts | 56° |
| 2026-05-08 00:58 | 41.15466 | -89.10265 | 11530 ft | 389 kts | 56° |
| 2026-05-08 00:58 | 41.16771 | -89.07242 | 11202 ft | 367 kts | 55° |
| 2026-05-08 00:58 | 41.18008 | -89.04379 | 10863 ft | 349 kts | 55° |
| 2026-05-08 00:59 | 41.19189 | -89.01649 | 10561 ft | 333 kts | 54° |
| 2026-05-08 00:59 | 41.20317 | -88.99036 | 10251 ft | 319 kts | 54° |
| 2026-05-08 00:59 | 41.21398 | -88.96519 | 9992 ft | 309 kts | 56° |
| 2026-05-08 00:59 | 41.22349 | -88.93985 | 9835 ft | 305 kts | 59° |
| 2026-05-08 01:00 | 41.23230 | -88.91442 | 9667 ft | 303 kts | 60° |
| 2026-05-08 01:00 | 41.24102 | -88.88902 | 9504 ft | 302 kts | 60° |
| 2026-05-08 01:00 | 41.24983 | -88.86369 | 9338 ft | 301 kts | 60° |
| 2026-05-08 01:00 | 41.25862 | -88.83860 | 9177 ft | 299 kts | 60° |
| 2026-05-08 01:01 | 41.26733 | -88.81384 | 9008 ft | 299 kts | 60° |
| 2026-05-08 01:01 | 41.27612 | -88.78886 | 8851 ft | 298 kts | 60° |
| 2026-05-08 01:01 | 41.28500 | -88.76360 | 8681 ft | 297 kts | 60° |
| 2026-05-08 01:01 | 41.29362 | -88.73905 | 8522 ft | 297 kts | 60° |
| 2026-05-08 01:02 | 41.30234 | -88.71420 | 8356 ft | 296 kts | 60° |
| 2026-05-08 01:02 | 41.31105 | -88.68938 | 8201 ft | 296 kts | 60° |
| 2026-05-08 01:02 | 41.31974 | -88.66457 | 8042 ft | 296 kts | 60° |
| 2026-05-08 01:02 | 41.32841 | -88.63979 | 7878 ft | 295 kts | 60° |
| 2026-05-08 01:03 | 41.33707 | -88.61502 | 7719 ft | 295 kts | 60° |
| 2026-05-08 01:03 | 41.34572 | -88.59027 | 7564 ft | 294 kts | 61° |
| 2026-05-08 01:03 | 41.35433 | -88.56560 | 7391 ft | 293 kts | 61° |
| 2026-05-08 01:03 | 41.36288 | -88.54109 | 7233 ft | 292 kts | 61° |
| 2026-05-08 01:04 | 41.36854 | -88.52486 | 7115 ft | 291 kts | 62° |
| 2026-05-08 01:04 | 41.37786 | -88.50110 | 6989 ft | 286 kts | 51° |
| 2026-05-08 01:04 | 41.38974 | -88.48043 | 6894 ft | 279 kts | 46° |
| 2026-05-08 01:04 | 41.40217 | -88.46073 | 6813 ft | 275 kts | 45° |
| 2026-05-08 01:05 | 41.41451 | -88.44127 | 6726 ft | 275 kts | 45° |
| 2026-05-08 01:05 | 41.42677 | -88.42170 | 6633 ft | 277 kts | 46° |
| 2026-05-08 01:05 | 41.43911 | -88.40178 | 6549 ft | 280 kts | 46° |
| 2026-05-08 01:05 | 41.45148 | -88.38162 | 6446 ft | 281 kts | 46° |
| 2026-05-08 01:06 | 41.46381 | -88.36139 | 6350 ft | 281 kts | 47° |
| 2026-05-08 01:06 | 41.47610 | -88.34114 | 6253 ft | 281 kts | 47° |
| 2026-05-08 01:06 | 41.48834 | -88.32095 | 6122 ft | 278 kts | 47° |
| 2026-05-08 01:06 | 41.50042 | -88.30098 | 6025 ft | 277 kts | 47° |
| 2026-05-08 01:07 | 41.51038 | -88.27882 | 6006 ft | 283 kts | 68° |
| 2026-05-08 01:07 | 41.51634 | -88.25378 | 6016 ft | 284 kts | 71° |
| 2026-05-08 01:07 | 41.52202 | -88.22850 | 6009 ft | 284 kts | 71° |
| 2026-05-08 01:07 | 41.52771 | -88.20326 | 6007 ft | 283 kts | 71° |
| 2026-05-08 01:08 | 41.53338 | -88.17849 | 6002 ft | 282 kts | 70° |
| 2026-05-08 01:08 | 41.53921 | -88.15343 | 6003 ft | 282 kts | 70° |
| 2026-05-08 01:08 | 41.54505 | -88.12849 | 6013 ft | 281 kts | 70° |
| 2026-05-08 01:08 | 41.55089 | -88.10357 | 6022 ft | 281 kts | 70° |
| 2026-05-08 01:09 | 41.55671 | -88.07861 | 6016 ft | 281 kts | 70° |
| 2026-05-08 01:09 | 41.56250 | -88.05374 | 6009 ft | 280 kts | 70° |
| 2026-05-08 01:09 | 41.56867 | -88.02910 | 6007 ft | 278 kts | 61° |
| 2026-05-08 01:09 | 41.58039 | -88.00895 | 5732 ft | 278 kts | 38° |
| 2026-05-08 01:10 | 41.59512 | -87.99227 | 5384 ft | 277 kts | 36° |
| 2026-05-08 01:10 | 41.60954 | -87.97530 | 5119 ft | 274 kts | 39° |
| 2026-05-08 01:10 | 41.62322 | -87.95810 | 4881 ft | 269 kts | 40° |
| 2026-05-08 01:10 | 41.63672 | -87.94083 | 4535 ft | 268 kts | 40° |
| 2026-05-08 01:11 | 41.65019 | -87.92360 | 4169 ft | 268 kts | 40° |
| 2026-05-08 01:11 | 41.66370 | -87.90637 | 3825 ft | 267 kts | 40° |
| 2026-05-08 01:11 | 41.67699 | -87.88943 | 3452 ft | 261 kts | 40° |
| 2026-05-08 01:11 | 41.68991 | -87.87295 | 3099 ft | 251 kts | 40° |
| 2026-05-08 01:12 | 41.70204 | -87.85748 | 2761 ft | 232 kts | 40° |
| 2026-05-08 01:12 | 41.71337 | -87.84304 | 2445 ft | 216 kts | 40° |
| 2026-05-08 01:12 | 41.72393 | -87.82961 | 2158 ft | 202 kts | 40° |
| 2026-05-08 01:12 | 41.73357 | -87.81733 | 1907 ft | 187 kts | 40° |
| 2026-05-08 01:13 | 41.74251 | -87.80595 | 1690 ft | 168 kts | 40° |
| 2026-05-08 01:13 | 41.75060 | -87.79567 | 1462 ft | 155 kts | 41° |
| 2026-05-08 01:13 | 41.75830 | -87.78589 | 1250 ft | 150 kts | 43° |
| 2026-05-08 01:13 | 41.76584 | -87.77631 | 1033 ft | 144 kts | 45° |
| 2026-05-08 01:14 | 41.77285 | -87.76747 | 845 ft | 140 kts | 45° |
| 2026-05-08 01:14 | 41.77983 | -87.75854 | 660 ft | 139 kts | 45° |
| 2026-05-08 01:14 | 41.78612 | -87.75051 | 630 ft | 100 kts | 43° |
| 2026-05-08 01:14 | 41.78894 | -87.74694 | 630 ft | 23 kts | 43° |
| 2026-05-08 01:15 | 41.78960 | -87.74577 | 629 ft | 13 kts | 91° |
| 2026-05-08 01:15 | 41.78893 | -87.74540 | 635 ft | 14 kts | 214° |
| 2026-05-08 01:15 | 41.78798 | -87.74658 | 632 ft | 20 kts | 223° |
| 2026-05-08 01:15 | 41.78693 | -87.74777 | 628 ft | 20 kts | 201° |
| 2026-05-08 01:16 | 41.78572 | -87.74733 | 628 ft | 19 kts | 137° |
| 2026-05-08 01:16 | 41.78478 | -87.74603 | 628 ft | 20 kts | 133° |
| 2026-05-08 01:16 | 41.78390 | -87.74478 | 636 ft | 13 kts | 124° |
| 2026-05-08 01:16 | 41.78426 | -87.74392 | 636 ft | 9 kts | 32° |
| 2026-05-08 01:17 | 41.78436 | -87.74384 | 632 ft | 0 kts | 32° |